ROTAER D-AMDT 33/18

PLATAFORMA P-20 ( SBMM ) / MACAÉ, RJ 22 21 26S/040 05 025W
HD PRIV Petrobrás UTC-3 HJ 38 (125)
SBCW (CINDACTA 2)
MET -

[1] [2] [3] CMA 1,2,3,4

[1] [2] [3] (22) 2792-2034

RMK -

REGULAMENTOS PARA TRÁFEGO LOCAL
  1. OPS HEL TKOF DA AREA DE RESPONSABILIDADE DAS RDO ENCHOVA, RDO MARLIM E RDO ALBACORA DEVERAO APRESENTAR PVC NO AD DE ORIGEM NO CONTINENTE E HEL REALIZANDO FLT TRANSLADO BTN AS PLATAFORMAS PODERAO APRESENTAR PLN VIA RADIOTELEFONIA PARA AS RDO ENCHOVA, RDO MARLIM E RDO ALBACORA
COMPL -
  • [1] (22) 2792-2552
  • [2] (DLY 0900-2100)
  • [3] OPR PETROBRAS
TEMP (1)
INFOTEMP CW0284M/19
MET CMA (1 A 4) HR SER 0915-2045

Duração: 14/05/19 18:21 a 11/08/19 23:59 UTC | Divulgação: 14/05/2019 18:20


Suplementos AIP (0)

NOTAM (1)

Z2105/18 R Z0895/18 03/12/2018 16:34
NDB MAR 375.00KHZ RETIRADO
REF: AIP-BRASIL ENR 6 L2/H2
ATCSMAC MACAE
IAC NDB A (HEL ONLY)
IAC RNAV (GNSS) 115


Nascer/Por do Sol

09:18

20:04


METAR

171800Z 15004KT 9999 FEW015 25/17 Q1021 W///S2=

TAF

Não disponível


Cartas (3)

IAC


SID



Rotas Preferenciais (0)